Time;durP1;ratioP1;P1;durP2;ratioP2;P2;SDS_P1;SDS_P2;PMS_P1;PMS_P2;Temp;Humidity;BMP_temperature;BMP_pressure;BME280_temperature;BME280_humidity;BME280_pressure;Samples;Min_cycle;Max_cycle;Signal;HPM_P1;HPM_P2
2019/11/23 00:00:14;;;;;;;19.3;17.3;;;;;;;2.65;100;947.6458;;;;
2019/11/23 00:02:39;;;;;;;18.9;16.9;;;;;;;2.7;100;947.6411;;;;
2019/11/23 00:05:04;;;;;;;18.9;17;;;;;;;2.72;100;947.6321;;;;
2019/11/23 00:07:29;;;;;;;18.3;16.6;;;;;;;2.59;100;947.5813;;;;
2019/11/23 00:09:54;;;;;;;19.5;17.6;;;;;;;2.49;100;947.552;;;;
2019/11/23 00:12:20;;;;;;;18.4;16.7;;;;;;;2.6;100;947.4464;;;;
2019/11/23 00:14:45;;;;;;;19.2;17.2;;;;;;;2.65;100;947.4593;;;;
2019/11/23 00:17:10;;;;;;;19;17.1;;;;;;;2.68;100;947.4046;;;;
2019/11/23 00:19:35;;;;;;;19.8;17.8;;;;;;;2.72;100;947.3445;;;;
2019/11/23 00:22:00;;;;;;;20.3;18.3;;;;;;;2.7;100;947.4006;;;;
2019/11/23 00:24:30;;;;;;;18.6;16.8;;;;;;;2.82;100;947.3926;;;;
2019/11/23 00:26:51;;;;;;;18.9;16.9;;;;;;;2.87;100;947.3674;;;;
2019/11/23 00:29:16;;;;;;;19.3;17.3;;;;;;;2.7;100;947.3217;;;;
2019/11/23 00:31:41;;;;;;;21;19;;;;;;;2.64;100;947.2999;;;;
2019/11/23 00:34:06;;;;;;;21.8;19.6;;;;;;;2.65;100;947.305;;;;
2019/11/23 00:36:32;;;;;;;20.5;18.5;;;;;;;2.73;100;947.2841;;;;
2019/11/23 00:39:01;;;;;;;19.4;17.6;;;;;;;2.78;100;947.3086;;;;
2019/11/23 00:41:44;;;;;;;19.5;17.6;;;;;;;2.83;100;947.24;;;;
2019/11/23 00:43:47;;;;;;;21.1;19;;;;;;;2.7;100;947.2477;;;;
2019/11/23 00:46:12;;;;;;;20.5;18.4;;;;;;;2.76;100;947.2544;;;;
2019/11/23 00:48:37;;;;;;;20.1;18.1;;;;;;;2.8;100;947.1;;;;
2019/11/23 00:51:03;;;;;;;20.9;18.9;;;;;;;2.69;100;947.0249;;;;
2019/11/23 00:53:28;;;;;;;21.3;19.1;;;;;;;2.72;100;946.9589;;;;
2019/11/23 00:55:53;;;;;;;20.8;18.7;;;;;;;2.77;100;946.9891;;;;
2019/11/23 00:58:19;;;;;;;18.6;16.8;;;;;;;2.95;100;947.0126;;;;
2019/11/23 01:00:44;;;;;;;19.5;17.6;;;;;;;2.7;100;946.9984;;;;
2019/11/23 01:03:09;;;;;;;21;19;;;;;;;2.62;100;947.0605;;;;
2019/11/23 01:05:35;;;;;;;20.4;18.4;;;;;;;2.79;100;946.9978;;;;
2019/11/23 01:08:00;;;;;;;20.3;18.2;;;;;;;2.83;100;946.9617;;;;
2019/11/23 01:11:24;;;;;;;20.2;18.2;;;;;;;2.83;100;946.9008;;;;
2019/11/23 01:13:49;;;;;;;21.8;19.7;;;;;;;2.82;100;946.8361;;;;
2019/11/23 01:16:14;;;;;;;21.5;19.4;;;;;;;2.85;100;946.7621;;;;
2019/11/23 01:18:39;;;;;;;22.4;20;;;;;;;2.68;100;946.6536;;;;
2019/11/23 01:21:04;;;;;;;20.9;18.9;;;;;;;2.73;100;946.7726;;;;
2019/11/23 01:23:29;;;;;;;20.6;18.5;;;;;;;2.89;100;946.8162;;;;
2019/11/23 01:25:54;;;;;;;21.2;19.1;;;;;;;2.86;100;946.7414;;;;
2019/11/23 01:28:19;;;;;;;21.8;19.6;;;;;;;2.88;100;946.7733;;;;
2019/11/23 01:30:44;;;;;;;20.3;18.2;;;;;;;3.01;100;946.7213;;;;
2019/11/23 01:33:09;;;;;;;20.2;18.2;;;;;;;3.02;100;946.7307;;;;
2019/11/23 01:35:34;;;;;;;20.6;18.4;;;;;;;2.84;100;946.7206;;;;
2019/11/23 01:38:00;;;;;;;19.9;17.8;;;;;;;2.93;100;946.725;;;;
2019/11/23 01:40:25;;;;;;;20.4;18.3;;;;;;;2.91;100;946.6496;;;;
2019/11/23 01:42:50;;;;;;;19.3;17.4;;;;;;;2.92;100;946.5378;;;;
2019/11/23 01:45:15;;;;;;;20.2;18.2;;;;;;;2.82;100;946.5168;;;;
2019/11/23 01:47:40;;;;;;;18.3;16.5;;;;;;;2.85;100;946.4622;;;;
2019/11/23 01:50:18;;;;;;;18.1;16.4;;;;;;;2.83;100;946.4551;;;;
2019/11/23 01:52:52;;;;;;;17.4;15.6;;;;;;;2.78;100;946.4447;;;;
2019/11/23 01:54:55;;;;;;;18.9;16.9;;;;;;;2.67;100;946.3704;;;;
2019/11/23 01:57:20;;;;;;;20.3;18.3;;;;;;;2.58;100;946.4089;;;;
2019/11/23 01:59:45;;;;;;;20.4;17.5;;;;;;;2.71;100;946.4559;;;;
2019/11/23 02:02:10;;;;;;;19.8;17.7;;;;;;;2.69;100;946.4475;;;;
2019/11/23 02:04:36;;;;;;;18.9;17;;;;;;;2.73;100;946.4106;;;;
2019/11/23 02:07:01;;;;;;;19.3;17.5;;;;;;;2.71;100;946.3844;;;;
2019/11/23 02:09:27;;;;;;;20.7;18.5;;;;;;;2.85;100;946.4115;;;;
2019/11/23 02:11:52;;;;;;;19.8;17.9;;;;;;;2.89;100;946.4197;;;;
2019/11/23 02:14:17;;;;;;;23.7;18.6;;;;;;;2.75;100;946.4194;;;;
2019/11/23 02:16:42;;;;;;;20.6;18.5;;;;;;;2.79;100;946.3986;;;;
2019/11/23 02:19:07;;;;;;;21.1;19;;;;;;;2.72;100;946.3928;;;;
2019/11/23 02:21:33;;;;;;;19.6;17.7;;;;;;;2.72;100;946.2722;;;;
2019/11/23 02:23:58;;;;;;;19.1;17.2;;;;;;;2.79;100;946.3084;;;;
2019/11/23 02:26:23;;;;;;;19.4;17.5;;;;;;;2.72;100;946.2698;;;;
2019/11/23 02:28:49;;;;;;;18.9;17.1;;;;;;;2.71;100;946.2653;;;;
2019/11/23 02:31:14;;;;;;;18.8;17;;;;;;;2.65;100;946.307;;;;
2019/11/23 02:33:39;;;;;;;18.5;16.7;;;;;;;2.73;100;946.3665;;;;
2019/11/23 02:36:04;;;;;;;18.6;16.8;;;;;;;2.94;100;946.224;;;;
2019/11/23 02:38:29;;;;;;;18.9;16.9;;;;;;;2.68;100;946.3408;;;;
2019/11/23 02:40:54;;;;;;;19.9;18;;;;;;;2.62;100;946.2604;;;;
2019/11/23 02:43:19;;;;;;;19.7;17.8;;;;;;;2.61;100;946.2659;;;;
2019/11/23 02:45:46;;;;;;;19.4;17.5;;;;;;;2.77;100;946.193;;;;
2019/11/23 02:48:10;;;;;;;19.7;17.7;;;;;;;2.49;100;946.097;;;;
2019/11/23 02:50:39;;;;;;;20.9;18.9;;;;;;;2.51;100;946.1291;;;;
2019/11/23 02:53:16;;;;;;;19.2;17.3;;;;;;;2.72;100;946.0941;;;;
2019/11/23 02:57:51;;;;;;;19;17.2;;;;;;;2.88;100;946.0889;;;;
2019/11/23 03:00:17;;;;;;;20.6;18.5;;;;;;;2.57;100;946.0318;;;;
2019/11/23 03:02:42;;;;;;;20.5;18.5;;;;;;;2.64;100;946.1275;;;;
2019/11/23 03:05:07;;;;;;;18.9;17.1;;;;;;;2.83;100;946.0408;;;;
2019/11/23 03:07:32;;;;;;;20.2;18.2;;;;;;;2.69;100;946.0572;;;;
2019/11/23 03:09:58;;;;;;;22.1;19.9;;;;;;;2.72;100;945.9763;;;;
2019/11/23 03:12:23;;;;;;;22;19.7;;;;;;;2.67;100;945.9056;;;;
2019/11/23 03:14:48;;;;;;;21.4;19.2;;;;;;;2.85;100;945.8331;;;;
2019/11/23 03:17:13;;;;;;;21;18.8;;;;;;;2.86;100;945.8864;;;;
2019/11/23 03:19:39;;;;;;;21.2;19.1;;;;;;;2.86;100;945.9219;;;;
2019/11/23 03:22:04;;;;;;;21.9;19.7;;;;;;;2.78;100;945.9637;;;;
2019/11/23 03:24:29;;;;;;;22.1;19.7;;;;;;;2.71;100;945.9299;;;;
2019/11/23 03:26:54;;;;;;;22.5;20.2;;;;;;;2.68;100;945.9075;;;;
2019/11/23 03:29:19;;;;;;;22.3;20;;;;;;;2.71;100;945.8511;;;;
2019/11/23 03:31:45;;;;;;;21.2;19.1;;;;;;;2.83;100;945.8084;;;;
2019/11/23 03:34:10;;;;;;;22.4;19.9;;;;;;;2.75;100;945.7684;;;;
2019/11/23 03:36:35;;;;;;;20.7;18.6;;;;;;;2.79;100;945.8107;;;;
2019/11/23 03:39:00;;;;;;;21.6;19;;;;;;;2.74;100;945.8036;;;;
2019/11/23 03:41:26;;;;;;;20.2;18.2;;;;;;;2.59;100;945.79;;;;
2019/11/23 03:43:51;;;;;;;21.5;19.4;;;;;;;2.51;100;945.7147;;;;
2019/11/23 03:46:16;;;;;;;21;19;;;;;;;2.59;100;945.6591;;;;
2019/11/23 03:48:41;;;;;;;19.4;17.5;;;;;;;2.76;100;945.736;;;;
2019/11/23 03:51:06;;;;;;;20.2;18.2;;;;;;;2.84;100;945.6819;;;;
2019/11/23 03:53:31;;;;;;;20.3;18.4;;;;;;;2.76;100;945.6958;;;;
2019/11/23 03:55:56;;;;;;;20.6;18.6;;;;;;;2.79;100;945.6925;;;;
2019/11/23 03:58:22;;;;;;;21.2;19.1;;;;;;;2.6;100;945.6133;;;;
2019/11/23 04:02:45;;;;;;;22.6;20.3;;;;;;;2.61;100;945.4996;;;;
2019/11/23 04:04:54;;;;;;;24;21.5;;;;;;;2.56;100;945.475;;;;
2019/11/23 04:07:19;;;;;;;24.6;22;;;;;;;2.52;100;945.4756;;;;
2019/11/23 04:09:44;;;;;;;24.7;22.1;;;;;;;2.55;100;945.4626;;;;
2019/11/23 04:12:09;;;;;;;24.1;21.7;;;;;;;2.59;100;945.4684;;;;
2019/11/23 04:14:34;;;;;;;24;21.6;;;;;;;2.57;100;945.4509;;;;
2019/11/23 04:17:00;;;;;;;25.9;23.3;;;;;;;2.47;100;945.4091;;;;
2019/11/23 04:19:25;;;;;;;24.5;22;;;;;;;2.49;100;945.3526;;;;
2019/11/23 04:21:51;;;;;;;24.6;22.1;;;;;;;2.47;100;945.3239;;;;
2019/11/23 04:24:16;;;;;;;22.9;20.7;;;;;;;2.6;100;945.3094;;;;
2019/11/23 04:26:41;;;;;;;23.7;21.3;;;;;;;2.45;100;945.2902;;;;
2019/11/23 04:29:06;;;;;;;22.9;20.7;;;;;;;2.55;100;945.2883;;;;
2019/11/23 04:31:31;;;;;;;21.5;19.4;;;;;;;2.57;100;945.2958;;;;
2019/11/23 04:33:56;;;;;;;22;19.9;;;;;;;2.51;100;945.2324;;;;
2019/11/23 04:36:21;;;;;;;23.9;21.6;;;;;;;2.37;100;945.2145;;;;
2019/11/23 04:38:46;;;;;;;24.1;21.7;;;;;;;2.37;100;945.1744;;;;
2019/11/23 04:41:11;;;;;;;22;19.9;;;;;;;2.51;100;945.1898;;;;
2019/11/23 04:43:36;;;;;;;23.9;21.5;;;;;;;2.37;100;945.1776;;;;
2019/11/23 04:46:02;;;;;;;23.9;21.5;;;;;;;2.5;100;945.0754;;;;
2019/11/23 04:48:27;;;;;;;24.4;22;;;;;;;2.38;100;945.0024;;;;
2019/11/23 04:50:52;;;;;;;23;20.9;;;;;;;2.48;100;944.9992;;;;
2019/11/23 04:53:17;;;;;;;22.9;20.7;;;;;;;2.49;100;945.048;;;;
2019/11/23 04:55:43;;;;;;;21.4;19.4;;;;;;;2.59;100;945.0986;;;;
2019/11/23 04:58:09;;;;;;;22.6;20.4;;;;;;;2.42;100;945.0034;;;;
2019/11/23 05:03:23;;;;;;;22.3;20.2;;;;;;;2.59;100;945.0279;;;;
2019/11/23 05:05:26;;;;;;;22.3;20.2;;;;;;;2.45;100;944.9944;;;;
2019/11/23 05:07:48;;;;;;;24;21.7;;;;;;;2.37;100;944.9492;;;;
2019/11/23 05:10:13;;;;;;;23.3;21;;;;;;;2.44;100;944.8898;;;;
2019/11/23 05:12:38;;;;;;;22.7;20.5;;;;;;;2.4;100;944.8569;;;;
2019/11/23 05:15:04;;;;;;;21.7;19.6;;;;;;;2.67;100;944.8259;;;;
2019/11/23 05:17:29;;;;;;;22.2;20;;;;;;;2.42;100;944.7389;;;;
2019/11/23 05:19:54;;;;;;;22;19.9;;;;;;;2.37;100;944.795;;;;
2019/11/23 05:22:19;;;;;;;22.7;20.6;;;;;;;2.36;100;944.7338;;;;
2019/11/23 05:24:44;;;;;;;23.7;21.4;;;;;;;2.32;100;944.7277;;;;
2019/11/23 05:27:09;;;;;;;21.5;19.5;;;;;;;2.47;100;944.7355;;;;
2019/11/23 05:29:34;;;;;;;21.1;19.1;;;;;;;2.51;100;944.7179;;;;
2019/11/23 05:31:59;;;;;;;22;19.9;;;;;;;2.43;100;944.6052;;;;
2019/11/23 05:34:25;;;;;;;24.1;21.8;;;;;;;2.35;100;944.6047;;;;
2019/11/23 05:36:50;;;;;;;22.9;20.6;;;;;;;2.45;100;944.5806;;;;
2019/11/23 05:39:15;;;;;;;21.2;19.2;;;;;;;2.54;100;944.5329;;;;
2019/11/23 05:41:40;;;;;;;20.6;18.6;;;;;;;2.57;100;944.4952;;;;
2019/11/23 05:44:05;;;;;;;20.4;18.5;;;;;;;2.59;100;944.527;;;;
2019/11/23 05:46:31;;;;;;;20;18;;;;;;;2.65;100;944.5164;;;;
2019/11/23 05:48:56;;;;;;;20.3;18.4;;;;;;;2.51;100;944.4169;;;;
2019/11/23 05:51:21;;;;;;;20.2;18.3;;;;;;;2.51;100;944.3425;;;;
2019/11/23 05:53:53;;;;;;;20.1;18.2;;;;;;;2.53;100;944.3761;;;;
2019/11/23 05:56:29;;;;;;;20.5;18.6;;;;;;;2.48;100;944.413;;;;
2019/11/23 05:58:53;;;;;;;19.5;17.7;;;;;;;2.52;100;944.3647;;;;
2019/11/23 06:01:10;;;;;;;20.5;18.6;;;;;;;2.54;100;944.365;;;;
2019/11/23 06:03:33;;;;;;;19.4;17.7;;;;;;;2.57;100;944.2869;;;;
2019/11/23 06:05:59;;;;;;;19.7;17.9;;;;;;;2.51;100;944.1947;;;;
2019/11/23 06:08:24;;;;;;;20;18.1;;;;;;;2.49;100;944.2402;;;;
2019/11/23 06:10:49;;;;;;;19.5;17.7;;;;;;;2.59;100;944.1107;;;;
2019/11/23 06:13:14;;;;;;;18.7;16.9;;;;;;;2.63;100;944.2285;;;;
2019/11/23 06:15:39;;;;;;;20.1;18.2;;;;;;;2.57;100;944.1719;;;;
2019/11/23 06:18:04;;;;;;;19.7;17.8;;;;;;;2.44;100;944.2622;;;;
2019/11/23 06:20:29;;;;;;;20.5;18.5;;;;;;;2.47;100;944.1858;;;;
2019/11/23 06:22:54;;;;;;;19.2;17.4;;;;;;;2.48;100;944.2043;;;;
2019/11/23 06:25:27;;;;;;;20;18.1;;;;;;;2.28;100;944.1852;;;;
2019/11/23 06:27:52;;;;;;;19.3;17.4;;;;;;;2.36;100;944.1102;;;;
2019/11/23 06:30:17;;;;;;;18.9;17.2;;;;;;;2.36;100;944.2147;;;;
2019/11/23 06:32:42;;;;;;;19.1;17.4;;;;;;;2.4;100;944.2244;;;;
2019/11/23 06:35:07;;;;;;;18.5;16.7;;;;;;;2.45;100;944.2068;;;;
2019/11/23 06:37:32;;;;;;;18.7;16.9;;;;;;;2.45;100;944.2647;;;;
2019/11/23 06:39:57;;;;;;;18.3;16.6;;;;;;;2.54;100;944.1575;;;;
2019/11/23 06:42:22;;;;;;;19;17.2;;;;;;;2.37;100;944.1609;;;;
2019/11/23 06:44:47;;;;;;;19.4;17.6;;;;;;;2.24;100;944.1502;;;;
2019/11/23 06:47:13;;;;;;;18.7;16.9;;;;;;;2.33;100;944.1242;;;;
2019/11/23 06:49:38;;;;;;;19.5;17.6;;;;;;;2.28;100;944.0887;;;;
2019/11/23 06:52:03;;;;;;;18.8;16.9;;;;;;;2.34;100;944.0934;;;;
2019/11/23 06:54:29;;;;;;;17.6;16;;;;;;;2.45;100;944.0879;;;;
2019/11/23 06:56:54;;;;;;;17.3;15.8;;;;;;;2.47;100;944.0829;;;;
2019/11/23 06:59:19;;;;;;;17;15.4;;;;;;;2.45;100;944.1088;;;;
2019/11/23 07:01:44;;;;;;;16.9;15.3;;;;;;;2.4;100;944.0861;;;;
2019/11/23 07:04:09;;;;;;;16.3;14.8;;;;;;;2.63;99.52539;944.0845;;;;
2019/11/23 07:06:35;;;;;;;17.3;15.5;;;;;;;2.36;99.88867;944.0524;;;;
2019/11/23 07:09:00;;;;;;;15.8;14.3;;;;;;;2.45;100;944.0541;;;;
2019/11/23 07:11:27;;;;;;;16.5;15;;;;;;;2.46;99.96875;944.0377;;;;
2019/11/23 07:13:54;;;;;;;16.4;14.8;;;;;;;2.44;100;944.0524;;;;
2019/11/23 07:18:41;;;;;;;16.2;14.7;;;;;;;2.42;99.84766;944.1386;;;;
2019/11/23 07:21:06;;;;;;;16.1;14.6;;;;;;;2.54;99.37793;944.07;;;;
2019/11/23 07:23:31;;;;;;;16.1;14.7;;;;;;;2.55;99.22168;944.1548;;;;
2019/11/23 07:25:56;;;;;;;16.7;15.2;;;;;;;2.42;99.9043;944.0674;;;;
2019/11/23 07:28:22;;;;;;;15.3;13.8;;;;;;;2.48;99.68164;944.0416;;;;
2019/11/23 07:30:47;;;;;;;14.9;13.5;;;;;;;2.78;97.96289;943.9799;;;;
2019/11/23 07:33:12;;;;;;;16.2;14.7;;;;;;;2.61;98.9541;944.0878;;;;
2019/11/23 07:35:37;;;;;;;15.2;13.8;;;;;;;2.7;98.66992;944.0587;;;;
2019/11/23 07:38:02;;;;;;;14.7;13.3;;;;;;;2.74;98.10156;944.0876;;;;
2019/11/23 07:40:51;;;;;;;14;12.7;;;;;;;2.8;97.86523;944.0239;;;;
2019/11/23 07:43:16;;;;;;;13.9;12.5;;;;;;;2.98;97.38867;943.9998;;;;
2019/11/23 07:45:41;;;;;;;14.1;12.9;;;;;;;2.98;96.58594;943.9299;;;;
2019/11/23 07:48:06;;;;;;;14.1;12.8;;;;;;;3.1;96.93164;944.0105;;;;
2019/11/23 07:50:31;;;;;;;12.5;11.4;;;;;;;3.27;96.00586;944.0343;;;;
2019/11/23 07:52:56;;;;;;;13.1;11.9;;;;;;;3.23;95.37598;943.9266;;;;
2019/11/23 07:55:21;;;;;;;12.4;11.2;;;;;;;3.31;95.70117;943.9417;;;;
2019/11/23 07:57:46;;;;;;;11.4;10.3;;;;;;;3.3;95.00488;943.9866;;;;
2019/11/23 08:00:11;;;;;;;13.3;12.1;;;;;;;3.17;95.28418;943.9769;;;;
2019/11/23 08:02:36;;;;;;;12.1;11;;;;;;;3.31;94.66016;944.0078;;;;
2019/11/23 08:05:01;;;;;;;11.5;10.5;;;;;;;3.53;93.81152;943.981;;;;
2019/11/23 08:07:27;;;;;;;12.1;11;;;;;;;3.56;92.90234;943.86;;;;
2019/11/23 08:09:52;;;;;;;12.5;11.2;;;;;;;3.6;92.87598;943.8767;;;;
2019/11/23 08:12:17;;;;;;;11.6;10.6;;;;;;;3.48;93.63184;943.8334;;;;
2019/11/23 08:14:42;;;;;;;11.6;10.6;;;;;;;3.68;93.42676;943.7552;;;;
2019/11/23 08:17:07;;;;;;;11.3;10.2;;;;;;;3.64;93.63379;943.8244;;;;
2019/11/23 08:19:32;;;;;;;11.2;10.1;;;;;;;3.67;92.91504;943.75;;;;
2019/11/23 08:21:57;;;;;;;10.7;9.7;;;;;;;3.74;92.52051;943.7238;;;;
2019/11/23 08:24:23;;;;;;;10.3;9.4;;;;;;;3.86;92.72949;943.801;;;;
2019/11/23 08:26:48;;;;;;;9.9;9;;;;;;;4.04;91.06934;943.8046;;;;
2019/11/23 08:29:13;;;;;;;10.4;9.5;;;;;;;4.08;91.40625;943.7198;;;;
2019/11/23 08:31:38;;;;;;;10.5;9.3;;;;;;;4.06;90.7334;943.7508;;;;
2019/11/23 08:34:04;;;;;;;9.8;8.9;;;;;;;4.21;90.45996;943.6672;;;;
2019/11/23 08:36:29;;;;;;;9.4;8.5;;;;;;;4.3;90.05957;943.7082;;;;
2019/11/23 08:38:54;;;;;;;10.6;9.5;;;;;;;4.36;89.66211;943.689;;;;
2019/11/23 08:41:19;;;;;;;10.4;9.5;;;;;;;4.33;89.75879;943.6337;;;;
2019/11/23 08:43:44;;;;;;;9.6;8.7;;;;;;;4.44;88.97559;943.6186;;;;
2019/11/23 08:46:09;;;;;;;9.8;8.8;;;;;;;4.57;88.37988;943.4883;;;;
2019/11/23 08:48:34;;;;;;;10.2;9.1;;;;;;;4.66;88.19336;943.4171;;;;
2019/11/23 08:51:00;;;;;;;9.7;8.7;;;;;;;4.69;88.32422;943.3578;;;;
2019/11/23 08:53:25;;;;;;;9.3;8.4;;;;;;;4.74;87.68652;943.4038;;;;
2019/11/23 08:55:50;;;;;;;9.1;8.2;;;;;;;4.85;87.39063;943.4072;;;;
2019/11/23 08:58:15;;;;;;;8.5;7.7;;;;;;;5;87.43457;943.3826;;;;
2019/11/23 09:00:40;;;;;;;8.8;8;;;;;;;5.13;86.67578;943.4723;;;;
2019/11/23 09:03:05;;;;;;;8.8;8;;;;;;;5.36;86.05273;943.4067;;;;
2019/11/23 09:05:32;;;;;;;9;8.2;;;;;;;5.3;85.83496;943.25;;;;
2019/11/23 09:12:48;;;;;;;8.8;8;;;;;;;5.51;85.52441;943.3738;;;;
2019/11/23 09:15:11;;;;;;;8.9;8;;;;;;;5.58;84.98242;943.3663;;;;
2019/11/23 09:17:36;;;;;;;8.2;7.4;;;;;;;5.65;84.81348;943.4869;;;;
2019/11/23 09:20:01;;;;;;;8.3;7.5;;;;;;;5.68;84.88672;943.415;;;;
2019/11/23 09:22:26;;;;;;;8;7.3;;;;;;;5.97;82.86133;943.5809;;;;
2019/11/23 09:24:51;;;;;;;7.8;7;;;;;;;6.02;83.36035;943.4345;;;;
2019/11/23 09:27:16;;;;;;;8.3;7.5;;;;;;;6.07;82.7666;943.3426;;;;
2019/11/23 09:29:42;;;;;;;8;7.2;;;;;;;6.1;82.60156;943.342;;;;
2019/11/23 09:32:07;;;;;;;7.5;6.7;;;;;;;6.36;81.53613;943.3825;;;;
2019/11/23 09:34:32;;;;;;;7.9;6.7;;;;;;;6.4;81.62305;943.2172;;;;
2019/11/23 09:36:57;;;;;;;8.3;7.5;;;;;;;6.53;81.00781;943.3233;;;;
2019/11/23 09:39:22;;;;;;;8.3;7.5;;;;;;;6.47;81.76172;943.4337;;;;
2019/11/23 09:41:47;;;;;;;7.8;7.1;;;;;;;6.6;80.79395;943.2744;;;;
2019/11/23 09:44:12;;;;;;;8.3;7.5;;;;;;;6.63;80.28516;943.3531;;;;
2019/11/23 09:46:37;;;;;;;9.9;8.4;;;;;;;6.69;80.44531;943.3997;;;;
2019/11/23 09:49:02;;;;;;;7.9;7.1;;;;;;;6.65;80.87207;943.2983;;;;
2019/11/23 09:51:27;;;;;;;7.9;7.1;;;;;;;6.84;79.91504;943.3845;;;;
2019/11/23 09:53:52;;;;;;;7.9;7.1;;;;;;;6.88;80.21875;943.358;;;;
2019/11/23 09:56:17;;;;;;;7.5;6.7;;;;;;;6.81;80.23926;943.3017;;;;
2019/11/23 09:58:42;;;;;;;7.3;6.6;;;;;;;7.08;79.22754;943.3666;;;;
2019/11/23 10:01:08;;;;;;;7.5;6.8;;;;;;;7.04;80.15723;943.2352;;;;
2019/11/23 10:03:33;;;;;;;7.1;6.4;;;;;;;7.06;79.10059;943.2071;;;;
2019/11/23 10:05:58;;;;;;;6.6;6;;;;;;;7.08;79.77637;943.165;;;;
2019/11/23 10:08:23;;;;;;;7.2;6.5;;;;;;;7.05;79.85254;943.2983;;;;
2019/11/23 10:10:48;;;;;;;7.6;6.3;;;;;;;7.06;79.84277;943.1861;;;;
2019/11/23 10:13:13;;;;;;;7;6.3;;;;;;;7.13;79.5918;943.0049;;;;
2019/11/23 10:15:43;;;;;;;6.4;5.7;;;;;;;7.27;79.70996;943.1548;;;;
2019/11/23 10:18:05;;;;;;;6.9;6.2;;;;;;;7.37;78.65234;943.0458;;;;
2019/11/23 10:20:30;;;;;;;7.3;6;;;;;;;7.32;79.12402;942.9401;;;;
2019/11/23 10:22:55;;;;;;;8.4;5.9;;;;;;;7.4;80.02051;942.9648;;;;
2019/11/23 10:25:20;;;;;;;7.4;6.2;;;;;;;7.42;79.56543;942.9221;;;;
2019/11/23 10:27:45;;;;;;;7;5.8;;;;;;;7.53;79.58691;942.9871;;;;
2019/11/23 10:30:10;;;;;;;6.9;6.2;;;;;;;7.64;79.36621;942.9608;;;;
2019/11/23 10:32:35;;;;;;;7.2;6.5;;;;;;;7.88;78.81641;942.9225;;;;
2019/11/23 10:35:00;;;;;;;6.9;6.2;;;;;;;7.91;78.85547;942.8933;;;;
2019/11/23 10:37:25;;;;;;;8.6;7.7;;;;;;;7.88;78.63379;942.8057;;;;
2019/11/23 10:39:58;;;;;;;13.6;11.8;;;;;;;7.85;79.01758;942.736;;;;
2019/11/23 10:42:16;;;;;;;11.2;8.9;;;;;;;8.04;77.99805;942.7637;;;;
2019/11/23 10:44:41;;;;;;;7.4;6.1;;;;;;;7.99;77.98926;942.7639;;;;
2019/11/23 10:47:06;;;;;;;6.5;5.8;;;;;;;8.2;77.31836;942.7453;;;;
2019/11/23 10:49:31;;;;;;;7.2;5.5;;;;;;;8.28;76.27832;942.7727;;;;
2019/11/23 10:51:56;;;;;;;6.7;5.2;;;;;;;8.31;76.8916;942.7549;;;;
2019/11/23 10:54:21;;;;;;;6.3;5.7;;;;;;;8.35;76.86328;942.7349;;;;
2019/11/23 10:56:46;;;;;;;6;5.2;;;;;;;8.55;75.49121;942.6731;;;;
2019/11/23 10:59:11;;;;;;;6.2;5.6;;;;;;;8.56;75.44531;942.6806;;;;
2019/11/23 11:01:37;;;;;;;8.9;8;;;;;;;8.54;75.50098;942.704;;;;
2019/11/23 11:04:02;;;;;;;6.7;5.9;;;;;;;8.65;75.0752;942.7008;;;;
2019/11/23 11:06:27;;;;;;;7.4;5.6;;;;;;;8.87;73.51758;942.7305;;;;
2019/11/23 11:08:52;;;;;;;6.5;4.9;;;;;;;8.96;73.70508;942.7205;;;;
2019/11/23 11:11:17;;;;;;;5.6;4.5;;;;;;;9.15;73.06152;942.6752;;;;
2019/11/23 11:13:42;;;;;;;4.8;4.1;;;;;;;9.13;73.20605;942.5917;;;;
2019/11/23 11:16:08;;;;;;;4.2;3.6;;;;;;;9.17;73.00586;942.6525;;;;
2019/11/23 11:18:33;;;;;;;5;4.2;;;;;;;9.32;72.20703;942.6259;;;;
2019/11/23 11:20:58;;;;;;;5.8;3.9;;;;;;;9.34;72.10449;942.5023;;;;
2019/11/23 11:23:23;;;;;;;4.3;3.9;;;;;;;9.42;72.22363;942.4758;;;;
2019/11/23 11:25:48;;;;;;;6.1;3.6;;;;;;;9.66;71.125;942.5454;;;;
2019/11/23 11:28:14;;;;;;;4.1;3.5;;;;;;;9.66;71.43652;942.4919;;;;
2019/11/23 11:30:39;;;;;;;7.4;3.6;;;;;;;9.76;71.23535;942.3433;;;;
2019/11/23 11:33:04;;;;;;;4.6;3.8;;;;;;;9.78;71.34082;942.2342;;;;
2019/11/23 11:35:29;;;;;;;5.1;3.6;;;;;;;9.87;70.25293;942.3066;;;;
2019/11/23 11:37:54;;;;;;;3.4;3.1;;;;;;;9.94;69.54102;942.3111;;;;
2019/11/23 11:40:19;;;;;;;5.8;3.8;;;;;;;10.12;69.08691;942.336;;;;
2019/11/23 11:42:44;;;;;;;3.8;3.3;;;;;;;10.15;68.66504;942.2625;;;;
2019/11/23 11:45:09;;;;;;;3.6;3.1;;;;;;;10.21;68.59473;942.2726;;;;
2019/11/23 11:47:34;;;;;;;3.8;3.2;;;;;;;10.2;68.87988;942.319;;;;
2019/11/23 11:49:59;;;;;;;3.5;2.9;;;;;;;10.32;67.94434;942.315;;;;
2019/11/23 11:52:25;;;;;;;3.8;3.1;;;;;;;10.37;68.01074;942.3781;;;;
2019/11/23 11:54:50;;;;;;;4.6;3.1;;;;;;;10.31;68.58594;942.4008;;;;
2019/11/23 11:57:15;;;;;;;3.5;3.1;;;;;;;10.29;69.2168;942.3186;;;;
2019/11/23 11:59:40;;;;;;;5.2;2.8;;;;;;;10.38;68.9209;942.3181;;;;
2019/11/23 12:02:05;;;;;;;3.3;2.8;;;;;;;10.38;68.75977;942.3506;;;;
2019/11/23 12:04:30;;;;;;;4.1;2.9;;;;;;;10.43;69.98828;942.3516;;;;
2019/11/23 12:06:55;;;;;;;3.9;3.1;;;;;;;10.39;69.92285;942.3293;;;;
2019/11/23 12:09:20;;;;;;;3.6;3;;;;;;;10.45;69.81836;942.3328;;;;
2019/11/23 12:11:45;;;;;;;3.9;3.1;;;;;;;10.5;70.08008;942.321;;;;
2019/11/23 12:14:10;;;;;;;4.3;3;;;;;;;10.54;70.48926;942.2489;;;;
2019/11/23 12:17:05;;;;;;;3.7;3.1;;;;;;;10.56;69.39844;942.2545;;;;
2019/11/23 12:19:07;;;;;;;4;3.1;;;;;;;10.81;69.05859;942.2031;;;;
2019/11/23 12:21:25;;;;;;;3.7;3.2;;;;;;;10.71;69.48047;942.2059;;;;
2019/11/23 12:24:03;;;;;;;4.8;2.8;;;;;;;10.71;69.2627;942.1365;;;;
2019/11/23 12:26:16;;;;;;;3.2;2.9;;;;;;;10.83;68.79688;942.1875;;;;
2019/11/23 12:28:41;;;;;;;4;2.8;;;;;;;10.91;68.68457;942.2224;;;;
2019/11/23 12:31:06;;;;;;;3.5;2.9;;;;;;;10.86;69.04297;942.2195;;;;
2019/11/23 12:33:31;;;;;;;3.2;2.6;;;;;;;10.87;69.01074;942.2456;;;;
2019/11/23 12:35:56;;;;;;;3;2.5;;;;;;;10.91;69.09863;942.2369;;;;
2019/11/23 12:38:21;;;;;;;4.4;2.7;;;;;;;10.89;70.28125;942.2302;;;;
2019/11/23 12:43:00;;;;;;;3.1;2.6;;;;;;;10.92;69.20215;942.223;;;;
2019/11/23 12:45:25;;;;;;;3;2.6;;;;;;;10.9;68.84277;942.1892;;;;
2019/11/23 12:47:50;;;;;;;4.2;2.1;;;;;;;11.08;68.22559;942.1831;;;;
2019/11/23 12:50:15;;;;;;;5.7;2.5;;;;;;;11.08;68.12207;942.2083;;;;
2019/11/23 12:52:41;;;;;;;5.1;2.1;;;;;;;11.08;68.14551;942.2353;;;;
2019/11/23 12:55:06;;;;;;;3.2;2;;;;;;;11.12;67.89844;942.2192;;;;
2019/11/23 12:57:31;;;;;;;4.3;2.3;;;;;;;11.16;68.01953;942.1633;;;;
2019/11/23 12:59:56;;;;;;;5.8;2.4;;;;;;;11.2;67.57715;942.1506;;;;
2019/11/23 13:02:21;;;;;;;2.5;2.1;;;;;;;11.19;67.08008;942.1541;;;;
2019/11/23 13:04:46;;;;;;;3.3;1.9;;;;;;;11.3;67.07324;942.1339;;;;
2019/11/23 13:07:11;;;;;;;3.1;1.9;;;;;;;11.32;66.63672;942.116;;;;
2019/11/23 13:09:36;;;;;;;2.5;1.8;;;;;;;11.43;66.06641;942.0559;;;;
2019/11/23 13:12:01;;;;;;;2.6;1.6;;;;;;;11.38;66.26758;942.027;;;;
2019/11/23 13:14:26;;;;;;;3.4;1.8;;;;;;;11.47;66.29102;942.0969;;;;
2019/11/23 13:16:51;;;;;;;5;2;;;;;;;11.43;66.33203;942.1057;;;;
2019/11/23 13:19:16;;;;;;;2.4;1.7;;;;;;;11.43;65.96289;942.015;;;;
2019/11/23 13:21:41;;;;;;;4.8;1.9;;;;;;;11.53;65.78223;942.0259;;;;
2019/11/23 13:24:09;;;;;;;2.9;1.6;;;;;;;11.54;65.64648;941.9807;;;;
2019/11/23 13:26:32;;;;;;;2.3;1.5;;;;;;;11.59;65.62891;941.9819;;;;
2019/11/23 13:28:57;;;;;;;2.5;1.5;;;;;;;11.6;65.63086;942.0151;;;;
2019/11/23 13:31:22;;;;;;;3.1;2.1;;;;;;;11.61;65.72461;941.9548;;;;
2019/11/23 13:33:47;;;;;;;5.4;4.2;;;;;;;11.68;65.20508;942.0336;;;;
2019/11/23 13:36:12;;;;;;;2.3;1.7;;;;;;;11.66;65.36426;942.05;;;;
2019/11/23 13:38:37;;;;;;;3.7;1.8;;;;;;;11.7;65.21875;942.0369;;;;
2019/11/23 13:41:02;;;;;;;3.5;1.6;;;;;;;11.71;65.1748;942.0341;;;;
2019/11/23 13:43:27;;;;;;;3.4;1.7;;;;;;;11.72;65.78711;941.9792;;;;
2019/11/23 13:45:52;;;;;;;2.7;1.7;;;;;;;11.66;65.78906;941.9604;;;;
2019/11/23 13:48:17;;;;;;;3;1.6;;;;;;;11.61;66.18652;942.0273;;;;
2019/11/23 13:50:43;;;;;;;3.8;1.6;;;;;;;11.54;66.99609;942.028;;;;
2019/11/23 13:53:10;;;;;;;2.2;1.4;;;;;;;11.51;66.93164;942.0179;;;;
2019/11/23 13:55:33;;;;;;;3.6;1.4;;;;;;;11.51;66.75781;942.0865;;;;
2019/11/23 13:57:58;;;;;;;2.6;1.4;;;;;;;11.49;67.3916;942.0616;;;;
2019/11/23 14:00:23;;;;;;;1.6;1.4;;;;;;;11.49;67.44727;942.0496;;;;
2019/11/23 14:02:48;;;;;;;4.5;2.1;;;;;;;11.41;68.07031;942.0496;;;;
2019/11/23 14:05:13;;;;;;;4;2;;;;;;;11.4;68.02344;941.9551;;;;
2019/11/23 14:07:38;;;;;;;4.3;2.5;;;;;;;11.36;68.54785;941.9497;;;;
2019/11/23 14:10:03;;;;;;;4.6;2.3;;;;;;;11.29;69.02051;941.9661;;;;
2019/11/23 14:12:28;;;;;;;4.6;2.8;;;;;;;11.21;69.62988;941.9786;;;;
2019/11/23 14:14:53;;;;;;;3.5;2.4;;;;;;;11.3;69.19336;942.0703;;;;
2019/11/23 14:17:19;;;;;;;4.3;3;;;;;;;11.2;70.27246;942.0334;;;;
2019/11/23 14:19:44;;;;;;;4.6;3.1;;;;;;;11.22;69.9873;942.0412;;;;
2019/11/23 14:22:09;;;;;;;3.6;2.5;;;;;;;11.18;70.1543;942.0653;;;;
2019/11/23 14:24:34;;;;;;;3.9;2.3;;;;;;;11.3;69.63281;942.0271;;;;
2019/11/23 14:26:59;;;;;;;3.8;2.3;;;;;;;11.25;70.23535;941.9766;;;;
2019/11/23 14:29:24;;;;;;;4.6;2.4;;;;;;;11.24;70.25684;941.9619;;;;
2019/11/23 14:31:49;;;;;;;3.9;2.2;;;;;;;11.14;70.74805;942.0023;;;;
2019/11/23 14:34:14;;;;;;;3.5;2.3;;;;;;;11.07;71.19824;941.9754;;;;
2019/11/23 14:36:39;;;;;;;3.9;2;;;;;;;11.09;71.01563;942.0069;;;;
2019/11/23 14:39:05;;;;;;;4.3;2.1;;;;;;;11.17;70.81055;942.0736;;;;
2019/11/23 14:41:30;;;;;;;5.2;2.5;;;;;;;11.05;71.57422;942.0579;;;;
2019/11/23 14:43:55;;;;;;;5.1;2.1;;;;;;;10.99;71.75977;942.0496;;;;
2019/11/23 14:46:21;;;;;;;3.6;1.9;;;;;;;11;72.44141;942.0821;;;;
2019/11/23 14:48:46;;;;;;;2.9;1.8;;;;;;;10.97;72.29883;942.0367;;;;
2019/11/23 14:51:11;;;;;;;4.8;2.2;;;;;;;10.9;72.97754;942.0123;;;;
2019/11/23 14:53:37;;;;;;;4.8;1.9;;;;;;;10.92;72.99219;942.0547;;;;
2019/11/23 14:56:02;;;;;;;3;2.3;;;;;;;10.89;73.05664;942.0158;;;;